Time,TemperatureF,DewpointF,PressureIn,WindDirection,WindDirectionDegrees,WindSpeedMPH,WindSpeedGustMPH,Humidity,HourlyPrecipIn,Conditions,Clouds,dailyrainin,SolarRadiationWatts/m^2,SoftwareType,DateUTC
2013-02-10 00:05:00,34.5,16.0,29.93,NW,305,0.0,0.0,46,0.00,,,0.00,0,weatherlink.com 1.10,2013-02-10 07:05:00,
2013-02-10 00:21:00,32.6,15.0,29.94,NW,313,4.0,6.0,48,0.00,,,0.00,0,weatherlink.com 1.10,2013-02-10 07:21:00,
2013-02-10 00:36:00,34.3,16.0,29.95,NW,321,1.0,6.0,48,0.00,,,0.00,0,weatherlink.com 1.10,2013-02-10 07:36:00,
2013-02-10 00:51:00,35.3,15.0,29.95,North,350,0.0,8.0,44,0.00,,,0.00,0,weatherlink.com 1.10,2013-02-10 07:51:00,
2013-02-10 01:06:00,33.6,14.0,29.95,North,350,1.0,2.0,45,0.00,,,0.00,0,weatherlink.com 1.10,2013-02-10 08:06:00,
2013-02-10 01:21:00,32.3,15.0,29.96,North,350,0.0,5.0,49,0.00,,,0.00,0,weatherlink.com 1.10,2013-02-10 08:21:00,
2013-02-10 01:36:00,33.5,15.0,29.96,North,350,2.0,5.0,47,0.00,,,0.00,0,weatherlink.com 1.10,2013-02-10 08:36:00,
2013-02-10 01:51:00,35.5,15.0,29.96,WSW,243,1.0,7.0,44,0.00,,,0.00,0,weatherlink.com 1.10,2013-02-10 08:51:00,
2013-02-10 02:06:00,34.2,15.0,29.96,WSW,243,3.0,4.0,46,0.00,,,0.00,0,weatherlink.com 1.10,2013-02-10 09:06:00,
2013-02-10 02:21:00,34.5,16.0,29.96,West,279,3.0,9.0,46,0.00,,,0.00,0,weatherlink.com 1.10,2013-02-10 09:21:00,
2013-02-10 02:36:00,33.9,15.0,29.96,WNW,284,0.0,7.0,47,0.00,,,0.00,0,weatherlink.com 1.10,2013-02-10 09:36:00,
2013-02-10 02:51:00,33.7,15.0,29.96,WNW,284,0.0,5.0,47,0.00,,,0.00,0,weatherlink.com 1.10,2013-02-10 09:51:00,
2013-02-10 03:06:00,33.1,16.0,29.96,WNW,284,0.0,2.0,49,0.00,,,0.00,0,weatherlink.com 1.10,2013-02-10 10:06:00,
2013-02-10 03:21:00,31.2,15.0,29.96,WNW,284,4.0,7.0,52,0.00,,,0.00,0,weatherlink.com 1.10,2013-02-10 10:21:00,
2013-02-10 03:36:00,31.9,16.0,29.96,NW,314,7.0,8.0,53,0.00,,,0.00,0,weatherlink.com 1.10,2013-02-10 10:36:00,
2013-02-10 03:51:00,32.2,17.0,29.96,NW,323,6.0,8.0,54,0.00,,,0.00,0,weatherlink.com 1.10,2013-02-10 10:51:00,
2013-02-10 04:07:00,32.5,17.0,29.96,NW,323,4.0,7.0,54,0.00,,,0.00,0,weatherlink.com 1.10,2013-02-10 11:07:00,
2013-02-10 04:21:00,32.3,17.0,29.96,NW,321,2.0,5.0,53,0.00,,,0.00,0,weatherlink.com 1.10,2013-02-10 11:21:00,
2013-02-10 04:36:00,31.9,17.0,29.96,NW,321,0.0,1.0,54,0.00,,,0.00,0,weatherlink.com 1.10,2013-02-10 11:36:00,
2013-02-10 04:51:00,30.0,16.0,29.96,NW,324,4.0,6.0,57,0.00,,,0.00,0,weatherlink.com 1.10,2013-02-10 11:51:00,
2013-02-10 05:06:00,30.7,17.0,29.96,NNW,327,5.0,6.0,57,0.00,,,0.00,0,weatherlink.com 1.10,2013-02-10 12:06:00,
2013-02-10 05:21:00,32.1,17.0,29.96,NNW,328,2.0,7.0,54,0.00,,,0.00,0,weatherlink.com 1.10,2013-02-10 12:21:00,
2013-02-10 05:36:00,32.8,17.0,29.97,NW,317,0.0,3.0,52,0.00,,,0.00,0,weatherlink.com 1.10,2013-02-10 12:36:00,
2013-02-10 05:51:00,33.0,17.0,29.97,NW,324,4.0,6.0,51,0.00,,,0.00,0,weatherlink.com 1.10,2013-02-10 12:51:00,
2013-02-10 06:06:00,33.2,17.0,29.97,NNW,328,0.0,3.0,51,0.00,,,0.00,0,weatherlink.com 1.10,2013-02-10 13:06:00,
2013-02-10 06:21:00,31.1,15.0,29.98,NNW,328,4.0,5.0,52,0.00,,,0.00,0,weatherlink.com 1.10,2013-02-10 13:21:00,
2013-02-10 06:36:00,30.5,16.0,29.99,NNW,328,1.0,3.0,54,0.00,,,0.00,0,weatherlink.com 1.10,2013-02-10 13:36:00,
2013-02-10 06:51:00,30.1,16.0,29.99,NE,42,1.0,6.0,57,0.00,,,0.00,0,weatherlink.com 1.10,2013-02-10 13:51:00,
2013-02-10 07:06:00,30.1,17.0,30.00,NE,42,0.0,5.0,58,0.00,,,0.00,11,weatherlink.com 1.10,2013-02-10 14:06:00,
2013-02-10 07:21:00,30.7,17.0,30.00,NE,42,3.0,5.0,56,0.00,,,0.00,18,weatherlink.com 1.10,2013-02-10 14:21:00,
2013-02-10 07:36:00,32.0,16.0,30.01,NE,42,3.0,7.0,52,0.00,,,0.00,74,weatherlink.com 1.10,2013-02-10 14:36:00,
2013-02-10 07:51:00,35.3,16.0,30.01,NNE,14,0.0,5.0,45,0.00,,,0.00,132,weatherlink.com 1.10,2013-02-10 14:51:00,
2013-02-10 08:06:00,36.8,16.0,30.01,North,355,4.0,7.0,42,0.00,,,0.00,195,weatherlink.com 1.10,2013-02-10 15:06:00,
2013-02-10 08:21:00,37.9,15.0,30.02,NNW,344,0.0,6.0,40,0.00,,,0.00,250,weatherlink.com 1.10,2013-02-10 15:21:00,
2013-02-10 08:37:00,37.8,15.0,30.03,NW,323,0.0,8.0,40,0.00,,,0.00,297,weatherlink.com 1.10,2013-02-10 15:37:00,
2013-02-10 08:52:00,37.8,16.0,30.03,NW,310,3.0,7.0,41,0.00,,,0.00,348,weatherlink.com 1.10,2013-02-10 15:52:00,
2013-02-10 09:07:00,38.0,16.0,30.04,NW,305,1.0,7.0,40,0.00,,,0.00,394,weatherlink.com 1.10,2013-02-10 16:07:00,
2013-02-10 09:22:00,38.1,16.0,30.04,WNW,286,5.0,6.0,40,0.00,,,0.00,438,weatherlink.com 1.10,2013-02-10 16:22:00,
2013-02-10 09:37:00,38.8,16.0,30.04,WNW,286,2.0,6.0,39,0.00,,,0.00,480,weatherlink.com 1.10,2013-02-10 16:37:00,
2013-02-10 09:52:00,39.7,15.0,30.04,West,270,0.0,9.0,37,0.00,,,0.00,522,weatherlink.com 1.10,2013-02-10 16:52:00,
2013-02-10 10:07:00,39.7,15.0,30.04,West,269,3.0,8.0,37,0.00,,,0.00,557,weatherlink.com 1.10,2013-02-10 17:07:00,
2013-02-10 10:22:00,40.1,16.0,30.04,West,268,1.0,5.0,37,0.00,,,0.00,591,weatherlink.com 1.10,2013-02-10 17:22:00,
2013-02-10 10:37:00,40.9,15.0,30.04,WSW,239,2.0,10.0,35,0.00,,,0.00,621,weatherlink.com 1.10,2013-02-10 17:37:00,
2013-02-10 10:52:00,41.5,16.0,30.04,WSW,239,3.0,5.0,35,0.00,,,0.00,649,weatherlink.com 1.10,2013-02-10 17:52:00,
2013-02-10 11:07:00,42.3,16.0,30.04,WNW,284,7.0,11.0,34,0.00,,,0.00,670,weatherlink.com 1.10,2013-02-10 18:07:00,
2013-02-10 11:22:00,43.2,16.0,30.03,West,279,2.0,5.0,33,0.00,,,0.00,687,weatherlink.com 1.10,2013-02-10 18:22:00,
2013-02-10 11:37:00,43.7,15.0,30.03,South,177,1.0,6.0,32,0.00,,,0.00,703,weatherlink.com 1.10,2013-02-10 18:37:00,
2013-02-10 11:52:00,44.4,14.0,30.02,WSW,246,5.0,9.0,29,0.00,,,0.00,714,weatherlink.com 1.10,2013-02-10 18:52:00,
2013-02-10 12:07:00,45.5,14.0,30.02,South,186,10.0,14.0,28,0.00,,,0.00,722,weatherlink.com 1.10,2013-02-10 19:07:00,
2013-02-10 12:22:00,45.5,13.0,30.01,SW,215,7.0,11.0,27,0.00,,,0.00,724,weatherlink.com 1.10,2013-02-10 19:22:00,
2013-02-10 12:38:00,46.5,13.0,30.00,SW,219,10.0,13.0,26,0.00,,,0.00,722,weatherlink.com 1.10,2013-02-10 19:38:00,
2013-02-10 12:53:00,46.9,13.0,30.00,South,186,2.0,9.0,26,0.00,,,0.00,714,weatherlink.com 1.10,2013-02-10 19:53:00,
2013-02-10 13:08:00,47.6,12.0,29.99,South,188,4.0,14.0,24,0.00,,,0.00,705,weatherlink.com 1.10,2013-02-10 20:08:00,
2013-02-10 13:23:00,48.1,13.0,29.98,South,169,10.0,12.0,24,0.00,,,0.00,689,weatherlink.com 1.10,2013-02-10 20:23:00,
2013-02-10 13:38:00,48.7,12.0,29.98,SW,216,6.0,11.0,23,0.00,,,0.00,671,weatherlink.com 1.10,2013-02-10 20:38:00,
2013-02-10 13:53:00,49.1,14.0,29.97,SSW,212,1.0,12.0,24,0.00,,,0.00,649,weatherlink.com 1.10,2013-02-10 20:53:00,
2013-02-10 14:08:00,49.4,13.0,29.97,SSW,196,10.0,13.0,23,0.00,,,0.00,624,weatherlink.com 1.10,2013-02-10 21:08:00,
2013-02-10 14:23:00,49.7,12.0,29.96,SSE,161,12.0,15.0,22,0.00,,,0.00,592,weatherlink.com 1.10,2013-02-10 21:23:00,
2013-02-10 14:38:00,49.5,12.0,29.96,SSW,196,4.0,9.0,22,0.00,,,0.00,563,weatherlink.com 1.10,2013-02-10 21:38:00,
2013-02-10 14:53:00,51.2,11.0,29.96,SSW,196,8.0,15.0,20,0.00,,,0.00,522,weatherlink.com 1.10,2013-02-10 21:53:00,
2013-02-10 15:08:00,50.8,11.0,29.96,South,184,4.0,11.0,20,0.00,,,0.00,485,weatherlink.com 1.10,2013-02-10 22:08:00,
2013-02-10 15:23:00,50.9,11.0,29.97,SSW,192,1.0,13.0,20,0.00,,,0.00,441,weatherlink.com 1.10,2013-02-10 22:23:00,
2013-02-10 15:38:00,51.1,9.0,29.96,South,182,5.0,14.0,18,0.00,,,0.00,399,weatherlink.com 1.10,2013-02-10 22:38:00,
2013-02-10 15:53:00,51.7,9.0,29.96,SSW,206,11.0,14.0,18,0.00,,,0.00,357,weatherlink.com 1.10,2013-02-10 22:53:00,
2013-02-10 16:08:00,51.5,10.0,29.97,South,181,5.0,12.0,19,0.00,,,0.00,308,weatherlink.com 1.10,2013-02-10 23:08:00,
2013-02-10 16:23:00,51.0,10.0,29.96,SSW,208,5.0,8.0,19,0.00,,,0.00,253,weatherlink.com 1.10,2013-02-10 23:23:00,
2013-02-10 16:38:00,51.4,10.0,29.97,SW,234,1.0,12.0,19,0.00,,,0.00,186,weatherlink.com 1.10,2013-02-10 23:38:00,
2013-02-10 16:53:00,50.3,10.0,29.97,SSW,207,2.0,8.0,20,0.00,,,0.00,62,weatherlink.com 1.10,2013-02-10 23:53:00,
2013-02-10 17:08:00,50.0,10.0,29.96,SSW,205,5.0,10.0,20,0.00,,,0.00,93,weatherlink.com 1.10,2013-02-11 00:08:00,
2013-02-10 17:23:00,50.2,9.0,29.96,SSW,211,6.0,8.0,19,0.00,,,0.00,33,weatherlink.com 1.10,2013-02-11 00:23:00,
2013-02-10 17:38:00,49.2,8.0,29.96,SW,215,2.0,6.0,19,0.00,,,0.00,12,weatherlink.com 1.10,2013-02-11 00:38:00,
2013-02-10 17:53:00,47.9,8.0,29.96,SSW,209,1.0,8.0,20,0.00,,,0.00,0,weatherlink.com 1.10,2013-02-11 00:53:00,
2013-02-10 18:08:00,46.8,9.0,29.97,SSW,209,0.0,4.0,21,0.00,,,0.00,0,weatherlink.com 1.10,2013-02-11 01:08:00,
2013-02-10 18:23:00,46.0,9.0,29.97,SSW,209,0.0,0.0,22,0.00,,,0.00,0,weatherlink.com 1.10,2013-02-11 01:23:00,
2013-02-10 18:38:00,42.7,7.0,29.97,SSW,209,0.0,1.0,23,0.00,,,0.00,0,weatherlink.com 1.10,2013-02-11 01:38:00,
2013-02-10 18:53:00,41.4,8.0,29.98,SSW,209,5.0,6.0,25,0.00,,,0.00,0,weatherlink.com 1.10,2013-02-11 01:53:00,
2013-02-10 19:08:00,41.8,8.0,29.99,SSW,209,5.0,6.0,25,0.00,,,0.00,0,weatherlink.com 1.10,2013-02-11 02:08:00,
2013-02-10 19:23:00,42.5,9.0,29.99,SW,218,4.0,5.0,25,0.00,,,0.00,0,weatherlink.com 1.10,2013-02-11 02:23:00,
2013-02-10 19:38:00,42.7,9.0,30.00,WSW,256,6.0,7.0,25,0.00,,,0.00,0,weatherlink.com 1.10,2013-02-11 02:38:00,
2013-02-10 19:53:00,42.9,9.0,30.00,WNW,301,5.0,8.0,25,0.00,,,0.00,0,weatherlink.com 1.10,2013-02-11 02:53:00,
2013-02-10 20:08:00,42.8,10.0,30.00,NW,320,4.0,7.0,26,0.00,,,0.00,0,weatherlink.com 1.10,2013-02-11 03:08:00,
2013-02-10 20:23:00,41.4,10.0,30.01,NW,320,5.0,6.0,27,0.00,,,0.00,0,weatherlink.com 1.10,2013-02-11 03:23:00,
2013-02-10 20:38:00,40.2,9.0,30.02,NNW,330,4.0,7.0,28,0.00,,,0.00,0,weatherlink.com 1.10,2013-02-11 03:38:00,
2013-02-10 20:53:00,39.5,10.0,30.02,NNW,330,5.0,7.0,29,0.00,,,0.00,0,weatherlink.com 1.10,2013-02-11 03:53:00,
2013-02-10 21:08:00,39.3,9.0,30.02,NNW,330,4.0,6.0,29,0.00,,,0.00,0,weatherlink.com 1.10,2013-02-11 04:08:00,
2013-02-10 21:23:00,38.5,9.0,30.02,NNW,330,2.0,5.0,30,0.00,,,0.00,0,weatherlink.com 1.10,2013-02-11 04:23:00,
2013-02-10 21:38:00,38.1,10.0,30.02,NNW,330,4.0,6.0,31,0.00,,,0.00,0,weatherlink.com 1.10,2013-02-11 04:38:00,
2013-02-10 21:53:00,39.3,10.0,30.02,North,355,4.0,7.0,30,0.00,,,0.00,0,weatherlink.com 1.10,2013-02-11 04:53:00,
2013-02-10 22:08:00,40.1,10.0,30.02,North,9,6.0,6.0,29,0.00,,,0.00,0,weatherlink.com 1.10,2013-02-11 05:08:00,
2013-02-10 22:23:00,40.4,9.0,30.02,NNE,13,2.0,6.0,27,0.00,,,0.00,0,weatherlink.com 1.10,2013-02-11 05:23:00,
2013-02-10 22:38:00,40.4,9.0,30.02,NNE,13,3.0,4.0,27,0.00,,,0.00,0,weatherlink.com 1.10,2013-02-11 05:38:00,
2013-02-10 22:53:00,39.2,8.0,30.02,NNE,13,1.0,5.0,28,0.00,,,0.00,0,weatherlink.com 1.10,2013-02-11 05:53:00,
2013-02-10 23:08:00,39.9,9.0,30.02,NNE,13,4.0,5.0,28,0.00,,,0.00,0,weatherlink.com 1.10,2013-02-11 06:08:00,
2013-02-10 23:23:00,40.7,10.0,30.02,NNE,25,3.0,6.0,28,0.00,,,0.00,0,weatherlink.com 1.10,2013-02-11 06:23:00,
2013-02-10 23:38:00,41.1,9.0,30.02,NNE,25,1.0,3.0,27,0.00,,,0.00,0,weatherlink.com 1.10,2013-02-11 06:38:00,
2013-02-10 23:53:00,40.5,10.0,30.03,NNE,25,1.0,2.0,28,0.00,,,0.00,0,weatherlink.com 1.10,2013-02-11 06:53:00,